Chia-i, Taiwan
Current Conditions -  °F | °C
As of 8:30 AM on Thursday 23 Oct 2014 (Local Time) from RCMQ Reporting Station
Broken Clouds Broken Clouds  
Wind Chill: 72°   Ceiling: 10000
Heat Index: 72°   Visibility: 6mi
Dew Point: 59°   Wind: 21mph
Humidity: 64%   Direction: 20°NNE
Pressure: 30"   Gusts: NA
Location:  23.48°N, 120.44°E
Report Text: RCMQ 230030Z 02018KT 9999 FEW012 SCT040 BKN100 22/15 Q1016 NOSIG RMK A3002
Loading
Personal Weather Stations






























Interactive Weather Map
Tropical Storm Tracking
New forecast layout! Learn more

10-Day Weather Forecast

Advertisements
Track Severe Weather on mobile